sensor_id;sensor_type;location;lat;lon;timestamp;P1;durP1;ratioP1;P2;durP2;ratioP2
73814;SDS011;62145;55.648;37.602;2023-07-24T00:01:00;7.18;;;3.60;;
73814;SDS011;62145;55.648;37.602;2023-07-24T00:03:26;7.73;;;3.50;;
73814;SDS011;62145;55.648;37.602;2023-07-24T00:05:57;6.75;;;3.63;;
73814;SDS011;62145;55.648;37.602;2023-07-24T00:08:24;7.30;;;3.67;;
73814;SDS011;62145;55.648;37.602;2023-07-24T00:10:50;6.82;;;3.72;;
73814;SDS011;62145;55.648;37.602;2023-07-24T00:13:16;6.90;;;4.00;;
73814;SDS011;62145;55.648;37.602;2023-07-24T00:15:42;8.35;;;3.80;;
73814;SDS011;62145;55.648;37.602;2023-07-24T00:18:08;6.32;;;3.63;;
73814;SDS011;62145;55.648;37.602;2023-07-24T00:20:33;7.57;;;3.90;;
73814;SDS011;62145;55.648;37.602;2023-07-24T00:22:59;6.28;;;3.75;;
73814;SDS011;62145;55.648;37.602;2023-07-24T00:25:25;7.07;;;3.80;;
73814;SDS011;62145;55.648;37.602;2023-07-24T00:27:51;7.30;;;4.30;;
73814;SDS011;62145;55.648;37.602;2023-07-24T00:30:17;6.88;;;3.88;;
73814;SDS011;62145;55.648;37.602;2023-07-24T00:32:43;8.77;;;4.20;;
73814;SDS011;62145;55.648;37.602;2023-07-24T00:35:09;9.27;;;4.17;;
73814;SDS011;62145;55.648;37.602;2023-07-24T00:37:35;9.05;;;4.30;;
73814;SDS011;62145;55.648;37.602;2023-07-24T00:40:01;8.35;;;4.35;;
73814;SDS011;62145;55.648;37.602;2023-07-24T00:42:39;8.07;;;4.23;;
73814;SDS011;62145;55.648;37.602;2023-07-24T00:45:07;7.85;;;4.18;;
73814;SDS011;62145;55.648;37.602;2023-07-24T00:51:55;7.75;;;3.88;;
73814;SDS011;62145;55.648;37.602;2023-07-24T00:54:25;7.70;;;4.10;;
73814;SDS011;62145;55.648;37.602;2023-07-24T00:56:58;7.43;;;4.07;;
73814;SDS011;62145;55.648;37.602;2023-07-24T00:59:32;7.65;;;3.72;;
73814;SDS011;62145;55.648;37.602;2023-07-24T01:02:04;6.95;;;3.72;;
73814;SDS011;62145;55.648;37.602;2023-07-24T01:04:34;7.55;;;3.88;;
73814;SDS011;62145;55.648;37.602;2023-07-24T01:07:02;6.45;;;3.60;;
73814;SDS011;62145;55.648;37.602;2023-07-24T01:09:33;7.03;;;3.70;;
73814;SDS011;62145;55.648;37.602;2023-07-24T01:12:03;6.80;;;3.80;;
73814;SDS011;62145;55.648;37.602;2023-07-24T01:17:48;9.00;;;3.65;;
73814;SDS011;62145;55.648;37.602;2023-07-24T01:20:22;7.22;;;3.85;;
73814;SDS011;62145;55.648;37.602;2023-07-24T01:26:02;7.68;;;3.70;;
73814;SDS011;62145;55.648;37.602;2023-07-24T01:28:29;7.53;;;3.90;;
73814;SDS011;62145;55.648;37.602;2023-07-24T01:30:58;9.90;;;3.80;;
73814;SDS011;62145;55.648;37.602;2023-07-24T01:33:39;7.82;;;3.80;;
73814;SDS011;62145;55.648;37.602;2023-07-24T01:36:09;7.33;;;3.50;;
73814;SDS011;62145;55.648;37.602;2023-07-24T01:38:37;7.20;;;3.80;;
73814;SDS011;62145;55.648;37.602;2023-07-24T01:41:10;7.85;;;3.72;;
73814;SDS011;62145;55.648;37.602;2023-07-24T01:43:37;7.97;;;3.88;;
73814;SDS011;62145;55.648;37.602;2023-07-24T01:46:05;6.82;;;3.78;;
73814;SDS011;62145;55.648;37.602;2023-07-24T01:48:39;6.33;;;3.87;;
73814;SDS011;62145;55.648;37.602;2023-07-24T01:51:07;7.30;;;3.83;;
73814;SDS011;62145;55.648;37.602;2023-07-24T01:53:34;8.55;;;4.43;;
73814;SDS011;62145;55.648;37.602;2023-07-24T01:56:01;9.05;;;4.20;;
73814;SDS011;62145;55.648;37.602;2023-07-24T01:58:30;9.60;;;4.35;;
73814;SDS011;62145;55.648;37.602;2023-07-24T02:00:57;8.27;;;4.63;;
73814;SDS011;62145;55.648;37.602;2023-07-24T02:03:29;11.10;;;4.60;;
73814;SDS011;62145;55.648;37.602;2023-07-24T02:05:57;9.25;;;4.57;;
73814;SDS011;62145;55.648;37.602;2023-07-24T02:08:25;11.48;;;5.00;;
73814;SDS011;62145;55.648;37.602;2023-07-24T02:10:54;8.13;;;4.78;;
73814;SDS011;62145;55.648;37.602;2023-07-24T02:13:26;9.83;;;5.00;;
73814;SDS011;62145;55.648;37.602;2023-07-24T02:18:52;9.23;;;4.78;;
73814;SDS011;62145;55.648;37.602;2023-07-24T02:21:21;11.40;;;5.10;;
73814;SDS011;62145;55.648;37.602;2023-07-24T02:23:49;11.93;;;5.03;;
73814;SDS011;62145;55.648;37.602;2023-07-24T02:26:18;10.37;;;4.70;;
73814;SDS011;62145;55.648;37.602;2023-07-24T02:28:51;10.18;;;5.00;;
73814;SDS011;62145;55.648;37.602;2023-07-24T02:31:25;9.80;;;4.05;;
73814;SDS011;62145;55.648;37.602;2023-07-24T02:33:58;9.23;;;4.40;;
73814;SDS011;62145;55.648;37.602;2023-07-24T02:36:25;7.32;;;4.20;;
73814;SDS011;62145;55.648;37.602;2023-07-24T02:38:53;8.27;;;4.33;;
73814;SDS011;62145;55.648;37.602;2023-07-24T02:41:22;7.47;;;3.90;;
73814;SDS011;62145;55.648;37.602;2023-07-24T02:43:50;8.63;;;4.07;;
73814;SDS011;62145;55.648;37.602;2023-07-24T02:46:22;6.93;;;3.95;;
73814;SDS011;62145;55.648;37.602;2023-07-24T02:48:53;6.53;;;3.67;;
73814;SDS011;62145;55.648;37.602;2023-07-24T02:51:22;8.07;;;4.03;;
73814;SDS011;62145;55.648;37.602;2023-07-24T02:53:53;7.63;;;3.90;;
73814;SDS011;62145;55.648;37.602;2023-07-24T02:56:25;7.50;;;4.03;;
73814;SDS011;62145;55.648;37.602;2023-07-24T02:58:59;9.18;;;3.88;;
73814;SDS011;62145;55.648;37.602;2023-07-24T03:01:26;8.82;;;3.95;;
73814;SDS011;62145;55.648;37.602;2023-07-24T03:03:59;6.60;;;4.00;;
73814;SDS011;62145;55.648;37.602;2023-07-24T03:06:27;7.93;;;4.00;;
73814;SDS011;62145;55.648;37.602;2023-07-24T03:11:48;7.63;;;4.00;;
73814;SDS011;62145;55.648;37.602;2023-07-24T03:14:16;7.55;;;4.15;;
73814;SDS011;62145;55.648;37.602;2023-07-24T03:16:43;8.30;;;4.03;;
73814;SDS011;62145;55.648;37.602;2023-07-24T03:19:11;10.32;;;3.90;;
73814;SDS011;62145;55.648;37.602;2023-07-24T03:21:47;7.38;;;4.00;;
73814;SDS011;62145;55.648;37.602;2023-07-24T03:24:26;7.10;;;4.00;;
73814;SDS011;62145;55.648;37.602;2023-07-24T03:27:06;6.32;;;3.50;;
73814;SDS011;62145;55.648;37.602;2023-07-24T03:29:38;7.93;;;3.70;;
73814;SDS011;62145;55.648;37.602;2023-07-24T03:32:06;6.30;;;3.67;;
73814;SDS011;62145;55.648;37.602;2023-07-24T03:34:36;6.07;;;3.38;;
73814;SDS011;62145;55.648;37.602;2023-07-24T03:37:06;7.15;;;3.58;;
73814;SDS011;62145;55.648;37.602;2023-07-24T03:39:32;5.45;;;3.55;;
73814;SDS011;62145;55.648;37.602;2023-07-24T03:41:58;6.23;;;3.70;;
73814;SDS011;62145;55.648;37.602;2023-07-24T03:44:26;8.40;;;4.07;;
73814;SDS011;62145;55.648;37.602;2023-07-24T03:46:54;5.82;;;3.42;;
73814;SDS011;62145;55.648;37.602;2023-07-24T03:49:24;5.93;;;3.50;;
73814;SDS011;62145;55.648;37.602;2023-07-24T03:51:54;6.67;;;3.20;;
73814;SDS011;62145;55.648;37.602;2023-07-24T03:54:25;7.05;;;3.65;;
73814;SDS011;62145;55.648;37.602;2023-07-24T03:56:57;6.10;;;3.67;;
73814;SDS011;62145;55.648;37.602;2023-07-24T03:59:26;7.65;;;3.58;;
73814;SDS011;62145;55.648;37.602;2023-07-24T04:01:59;7.38;;;3.47;;
73814;SDS011;62145;55.648;37.602;2023-07-24T04:04:27;5.10;;;3.10;;
73814;SDS011;62145;55.648;37.602;2023-07-24T04:06:57;7.25;;;3.40;;
73814;SDS011;62145;55.648;37.602;2023-07-24T04:09:28;8.45;;;3.45;;
73814;SDS011;62145;55.648;37.602;2023-07-24T04:11:58;10.23;;;3.20;;
73814;SDS011;62145;55.648;37.602;2023-07-24T04:14:25;6.78;;;3.45;;
73814;SDS011;62145;55.648;37.602;2023-07-24T04:16:59;5.33;;;3.03;;
73814;SDS011;62145;55.648;37.602;2023-07-24T04:19:27;6.10;;;3.45;;
73814;SDS011;62145;55.648;37.602;2023-07-24T04:21:57;6.93;;;3.38;;
73814;SDS011;62145;55.648;37.602;2023-07-24T04:24:27;6.32;;;3.28;;
73814;SDS011;62145;55.648;37.602;2023-07-24T04:27:02;6.53;;;3.28;;
73814;SDS011;62145;55.648;37.602;2023-07-24T04:29:30;5.03;;;2.90;;
73814;SDS011;62145;55.648;37.602;2023-07-24T04:32:07;7.45;;;3.10;;
73814;SDS011;62145;55.648;37.602;2023-07-24T04:34:39;5.85;;;2.85;;
73814;SDS011;62145;55.648;37.602;2023-07-24T04:37:08;7.68;;;3.00;;
73814;SDS011;62145;55.648;37.602;2023-07-24T04:39:34;6.03;;;2.83;;
73814;SDS011;62145;55.648;37.602;2023-07-24T04:42:01;5.63;;;2.97;;
73814;SDS011;62145;55.648;37.602;2023-07-24T04:44:34;6.25;;;3.10;;
73814;SDS011;62145;55.648;37.602;2023-07-24T04:47:05;6.63;;;2.60;;
73814;SDS011;62145;55.648;37.602;2023-07-24T04:49:34;4.95;;;2.60;;
73814;SDS011;62145;55.648;37.602;2023-07-24T04:52:02;5.88;;;2.55;;
73814;SDS011;62145;55.648;37.602;2023-07-24T04:54:33;5.10;;;2.60;;
73814;SDS011;62145;55.648;37.602;2023-07-24T04:57:01;5.88;;;2.50;;
73814;SDS011;62145;55.648;37.602;2023-07-24T04:59:28;6.00;;;2.53;;
73814;SDS011;62145;55.648;37.602;2023-07-24T05:01:57;5.45;;;2.60;;
73814;SDS011;62145;55.648;37.602;2023-07-24T05:07:20;5.50;;;2.40;;
73814;SDS011;62145;55.648;37.602;2023-07-24T05:09:51;5.65;;;2.58;;
73814;SDS011;62145;55.648;37.602;2023-07-24T05:12:18;6.15;;;2.78;;
73814;SDS011;62145;55.648;37.602;2023-07-24T05:14:46;6.10;;;2.60;;
73814;SDS011;62145;55.648;37.602;2023-07-24T05:17:14;7.00;;;2.60;;
73814;SDS011;62145;55.648;37.602;2023-07-24T05:19:40;5.72;;;2.47;;
73814;SDS011;62145;55.648;37.602;2023-07-24T05:22:08;6.13;;;2.53;;
73814;SDS011;62145;55.648;37.602;2023-07-24T05:24:38;8.50;;;2.28;;
73814;SDS011;62145;55.648;37.602;2023-07-24T05:27:07;5.03;;;2.30;;
73814;SDS011;62145;55.648;37.602;2023-07-24T05:29:33;5.23;;;2.23;;
73814;SDS011;62145;55.648;37.602;2023-07-24T05:31:59;5.95;;;2.30;;
73814;SDS011;62145;55.648;37.602;2023-07-24T05:34:26;4.57;;;2.10;;
73814;SDS011;62145;55.648;37.602;2023-07-24T05:36:52;7.85;;;2.20;;
73814;SDS011;62145;55.648;37.602;2023-07-24T05:39:18;4.38;;;2.20;;
73814;SDS011;62145;55.648;37.602;2023-07-24T05:41:44;5.60;;;2.10;;
73814;SDS011;62145;55.648;37.602;2023-07-24T05:44:10;5.70;;;2.03;;
73814;SDS011;62145;55.648;37.602;2023-07-24T05:46:36;4.57;;;1.95;;
73814;SDS011;62145;55.648;37.602;2023-07-24T05:49:02;3.90;;;2.00;;
73814;SDS011;62145;55.648;37.602;2023-07-24T05:51:28;6.22;;;1.90;;
73814;SDS011;62145;55.648;37.602;2023-07-24T05:53:54;6.65;;;2.08;;
73814;SDS011;62145;55.648;37.602;2023-07-24T05:56:19;4.07;;;1.90;;
73814;SDS011;62145;55.648;37.602;2023-07-24T05:58:45;8.77;;;2.08;;
73814;SDS011;62145;55.648;37.602;2023-07-24T06:01:11;5.87;;;2.07;;
73814;SDS011;62145;55.648;37.602;2023-07-24T06:03:39;5.47;;;2.00;;
73814;SDS011;62145;55.648;37.602;2023-07-24T06:06:12;5.55;;;2.17;;
73814;SDS011;62145;55.648;37.602;2023-07-24T06:08:46;5.80;;;1.90;;
73814;SDS011;62145;55.648;37.602;2023-07-24T06:11:15;4.47;;;2.15;;
73814;SDS011;62145;55.648;37.602;2023-07-24T06:13:43;6.60;;;2.20;;
73814;SDS011;62145;55.648;37.602;2023-07-24T06:16:11;4.97;;;2.00;;
73814;SDS011;62145;55.648;37.602;2023-07-24T06:18:41;5.32;;;2.00;;
73814;SDS011;62145;55.648;37.602;2023-07-24T06:21:15;5.45;;;1.90;;
73814;SDS011;62145;55.648;37.602;2023-07-24T06:23:56;7.28;;;3.03;;
73814;SDS011;62145;55.648;37.602;2023-07-24T06:26:23;7.00;;;2.10;;
73814;SDS011;62145;55.648;37.602;2023-07-24T06:28:54;6.47;;;1.80;;
73814;SDS011;62145;55.648;37.602;2023-07-24T06:31:27;5.03;;;2.17;;
73814;SDS011;62145;55.648;37.602;2023-07-24T06:34:04;5.28;;;2.20;;
73814;SDS011;62145;55.648;37.602;2023-07-24T06:36:33;7.07;;;2.00;;
73814;SDS011;62145;55.648;37.602;2023-07-24T06:39:04;5.40;;;1.90;;
73814;SDS011;62145;55.648;37.602;2023-07-24T06:44:33;6.05;;;1.70;;
73814;SDS011;62145;55.648;37.602;2023-07-24T06:47:06;5.07;;;1.90;;
73814;SDS011;62145;55.648;37.602;2023-07-24T06:49:37;5.95;;;1.90;;
73814;SDS011;62145;55.648;37.602;2023-07-24T06:52:07;5.47;;;1.97;;
73814;SDS011;62145;55.648;37.602;2023-07-24T06:54:34;4.80;;;2.00;;
73814;SDS011;62145;55.648;37.602;2023-07-24T06:59:55;4.53;;;1.60;;
73814;SDS011;62145;55.648;37.602;2023-07-24T07:02:22;4.40;;;1.60;;
73814;SDS011;62145;55.648;37.602;2023-07-24T07:04:56;5.43;;;1.70;;
73814;SDS011;62145;55.648;37.602;2023-07-24T07:07:22;5.10;;;1.80;;
73814;SDS011;62145;55.648;37.602;2023-07-24T07:09:53;5.53;;;1.80;;
73814;SDS011;62145;55.648;37.602;2023-07-24T07:12:22;6.78;;;2.20;;
73814;SDS011;62145;55.648;37.602;2023-07-24T07:14:53;5.63;;;1.60;;
73814;SDS011;62145;55.648;37.602;2023-07-24T07:17:18;4.77;;;1.67;;
73814;SDS011;62145;55.648;37.602;2023-07-24T07:19:47;4.30;;;1.58;;
73814;SDS011;62145;55.648;37.602;2023-07-24T07:22:17;5.13;;;1.92;;
73814;SDS011;62145;55.648;37.602;2023-07-24T07:27:40;5.32;;;1.90;;
73814;SDS011;62145;55.648;37.602;2023-07-24T07:30:11;4.43;;;1.80;;
73814;SDS011;62145;55.648;37.602;2023-07-24T07:32:41;5.15;;;1.70;;
73814;SDS011;62145;55.648;37.602;2023-07-24T07:35:11;4.53;;;1.52;;
73814;SDS011;62145;55.648;37.602;2023-07-24T07:37:43;4.88;;;1.73;;
73814;SDS011;62145;55.648;37.602;2023-07-24T07:40:15;3.00;;;1.27;;
73814;SDS011;62145;55.648;37.602;2023-07-24T07:42:48;4.73;;;1.53;;
73814;SDS011;62145;55.648;37.602;2023-07-24T07:45:17;4.47;;;1.80;;
73814;SDS011;62145;55.648;37.602;2023-07-24T07:47:53;5.25;;;1.50;;
73814;SDS011;62145;55.648;37.602;2023-07-24T07:50:26;5.22;;;1.42;;
73814;SDS011;62145;55.648;37.602;2023-07-24T07:52:55;5.18;;;1.63;;
73814;SDS011;62145;55.648;37.602;2023-07-24T07:55:22;6.60;;;3.17;;
73814;SDS011;62145;55.648;37.602;2023-07-24T07:57:49;6.05;;;1.60;;
73814;SDS011;62145;55.648;37.602;2023-07-24T08:00:18;6.18;;;1.60;;
73814;SDS011;62145;55.648;37.602;2023-07-24T08:02:50;4.90;;;1.90;;
73814;SDS011;62145;55.648;37.602;2023-07-24T08:05:19;5.72;;;1.80;;
73814;SDS011;62145;55.648;37.602;2023-07-24T08:07:45;4.20;;;1.80;;
73814;SDS011;62145;55.648;37.602;2023-07-24T08:10:13;5.47;;;2.10;;
73814;SDS011;62145;55.648;37.602;2023-07-24T08:12:47;4.40;;;1.95;;
73814;SDS011;62145;55.648;37.602;2023-07-24T08:15:18;4.43;;;1.88;;
73814;SDS011;62145;55.648;37.602;2023-07-24T08:17:46;5.90;;;2.05;;
73814;SDS011;62145;55.648;37.602;2023-07-24T08:20:16;5.80;;;2.00;;
73814;SDS011;62145;55.648;37.602;2023-07-24T08:22:46;4.18;;;1.88;;
73814;SDS011;62145;55.648;37.602;2023-07-24T08:25:16;7.10;;;2.35;;
73814;SDS011;62145;55.648;37.602;2023-07-24T08:27:52;6.28;;;2.17;;
73814;SDS011;62145;55.648;37.602;2023-07-24T08:30:18;8.38;;;2.60;;
73814;SDS011;62145;55.648;37.602;2023-07-24T08:32:44;7.17;;;2.10;;
73814;SDS011;62145;55.648;37.602;2023-07-24T08:35:17;8.68;;;3.85;;
73814;SDS011;62145;55.648;37.602;2023-07-24T08:37:45;5.35;;;2.38;;
73814;SDS011;62145;55.648;37.602;2023-07-24T08:40:16;6.55;;;2.30;;
73814;SDS011;62145;55.648;37.602;2023-07-24T08:42:43;6.38;;;2.40;;
73814;SDS011;62145;55.648;37.602;2023-07-24T08:45:12;6.47;;;2.30;;
73814;SDS011;62145;55.648;37.602;2023-07-24T08:47:41;6.53;;;2.42;;
73814;SDS011;62145;55.648;37.602;2023-07-24T08:50:09;6.57;;;2.63;;
73814;SDS011;62145;55.648;37.602;2023-07-24T08:52:40;5.63;;;2.30;;
73814;SDS011;62145;55.648;37.602;2023-07-24T08:55:08;5.38;;;2.70;;
73814;SDS011;62145;55.648;37.602;2023-07-24T08:57:34;5.20;;;2.60;;
73814;SDS011;62145;55.648;37.602;2023-07-24T09:00:01;6.03;;;2.25;;
73814;SDS011;62145;55.648;37.602;2023-07-24T09:02:31;7.63;;;2.80;;
73814;SDS011;62145;55.648;37.602;2023-07-24T09:04:59;5.63;;;2.70;;
73814;SDS011;62145;55.648;37.602;2023-07-24T09:07:25;5.38;;;2.42;;
73814;SDS011;62145;55.648;37.602;2023-07-24T09:09:51;6.83;;;2.90;;
73814;SDS011;62145;55.648;37.602;2023-07-24T09:12:18;5.30;;;2.88;;
73814;SDS011;62145;55.648;37.602;2023-07-24T09:14:44;6.75;;;2.97;;
73814;SDS011;62145;55.648;37.602;2023-07-24T09:17:11;7.72;;;2.92;;
73814;SDS011;62145;55.648;37.602;2023-07-24T09:19:37;4.97;;;2.70;;
73814;SDS011;62145;55.648;37.602;2023-07-24T09:24:51;5.18;;;2.75;;
73814;SDS011;62145;55.648;37.602;2023-07-24T09:27:18;6.28;;;2.80;;
73814;SDS011;62145;55.648;37.602;2023-07-24T09:29:45;5.65;;;2.65;;
73814;SDS011;62145;55.648;37.602;2023-07-24T09:32:21;4.83;;;2.63;;
73814;SDS011;62145;55.648;37.602;2023-07-24T09:34:50;5.35;;;3.20;;
73814;SDS011;62145;55.648;37.602;2023-07-24T09:37:31;6.20;;;2.80;;
73814;SDS011;62145;55.648;37.602;2023-07-24T09:39:58;6.10;;;2.80;;
73814;SDS011;62145;55.648;37.602;2023-07-24T09:42:42;7.63;;;2.90;;
73814;SDS011;62145;55.648;37.602;2023-07-24T09:45:08;5.25;;;2.75;;
73814;SDS011;62145;55.648;37.602;2023-07-24T09:47:34;5.38;;;2.70;;
73814;SDS011;62145;55.648;37.602;2023-07-24T09:50:03;5.32;;;2.92;;
73814;SDS011;62145;55.648;37.602;2023-07-24T09:52:30;6.00;;;2.67;;
73814;SDS011;62145;55.648;37.602;2023-07-24T09:55:13;6.50;;;2.80;;
73814;SDS011;62145;55.648;37.602;2023-07-24T09:57:45;5.35;;;2.72;;
73814;SDS011;62145;55.648;37.602;2023-07-24T10:00:11;6.10;;;2.72;;
73814;SDS011;62145;55.648;37.602;2023-07-24T10:02:38;5.63;;;2.60;;
73814;SDS011;62145;55.648;37.602;2023-07-24T10:05:05;6.97;;;4.00;;
73814;SDS011;62145;55.648;37.602;2023-07-24T10:07:32;5.90;;;3.07;;
73814;SDS011;62145;55.648;37.602;2023-07-24T10:09:57;6.65;;;2.80;;
73814;SDS011;62145;55.648;37.602;2023-07-24T10:12:24;7.20;;;3.00;;
73814;SDS011;62145;55.648;37.602;2023-07-24T10:14:53;4.55;;;2.53;;
73814;SDS011;62145;55.648;37.602;2023-07-24T10:17:41;6.17;;;3.20;;
73814;SDS011;62145;55.648;37.602;2023-07-24T10:20:08;6.13;;;3.03;;
73814;SDS011;62145;55.648;37.602;2023-07-24T10:22:35;5.00;;;2.47;;
73814;SDS011;62145;55.648;37.602;2023-07-24T10:25:03;4.53;;;2.40;;
73814;SDS011;62145;55.648;37.602;2023-07-24T10:27:29;5.03;;;2.72;;
73814;SDS011;62145;55.648;37.602;2023-07-24T10:30:01;6.37;;;2.73;;
73814;SDS011;62145;55.648;37.602;2023-07-24T10:32:29;6.43;;;2.80;;
73814;SDS011;62145;55.648;37.602;2023-07-24T10:34:58;4.65;;;2.50;;
73814;SDS011;62145;55.648;37.602;2023-07-24T10:37:32;6.30;;;2.90;;
73814;SDS011;62145;55.648;37.602;2023-07-24T10:40:02;5.90;;;2.90;;
73814;SDS011;62145;55.648;37.602;2023-07-24T10:42:29;5.72;;;2.55;;
73814;SDS011;62145;55.648;37.602;2023-07-24T10:45:05;6.72;;;3.20;;
73814;SDS011;62145;55.648;37.602;2023-07-24T10:47:32;7.47;;;2.92;;
73814;SDS011;62145;55.648;37.602;2023-07-24T10:49:58;8.20;;;3.28;;
73814;SDS011;62145;55.648;37.602;2023-07-24T10:52:31;5.43;;;2.90;;
73814;SDS011;62145;55.648;37.602;2023-07-24T10:55:01;7.35;;;3.10;;
73814;SDS011;62145;55.648;37.602;2023-07-24T10:57:29;5.80;;;3.00;;
73814;SDS011;62145;55.648;37.602;2023-07-24T10:59:55;6.60;;;2.88;;
73814;SDS011;62145;55.648;37.602;2023-07-24T11:02:21;6.33;;;2.87;;
73814;SDS011;62145;55.648;37.602;2023-07-24T11:04:47;6.45;;;2.75;;
73814;SDS011;62145;55.648;37.602;2023-07-24T11:07:13;5.33;;;2.73;;
73814;SDS011;62145;55.648;37.602;2023-07-24T11:09:39;7.00;;;2.97;;
73814;SDS011;62145;55.648;37.602;2023-07-24T11:12:23;6.03;;;2.95;;
73814;SDS011;62145;55.648;37.602;2023-07-24T11:14:52;4.55;;;2.58;;
73814;SDS011;62145;55.648;37.602;2023-07-24T11:17:33;6.28;;;2.97;;
73814;SDS011;62145;55.648;37.602;2023-07-24T11:20:08;6.18;;;3.13;;
73814;SDS011;62145;55.648;37.602;2023-07-24T11:22:35;5.43;;;3.00;;
73814;SDS011;62145;55.648;37.602;2023-07-24T11:25:03;6.65;;;2.80;;
73814;SDS011;62145;55.648;37.602;2023-07-24T11:27:30;5.65;;;3.10;;
73814;SDS011;62145;55.648;37.602;2023-07-24T11:29:56;6.80;;;3.00;;
73814;SDS011;62145;55.648;37.602;2023-07-24T11:32:21;5.20;;;3.07;;
73814;SDS011;62145;55.648;37.602;2023-07-24T11:34:49;6.35;;;3.33;;
73814;SDS011;62145;55.648;37.602;2023-07-24T11:37:21;6.15;;;3.10;;
73814;SDS011;62145;55.648;37.602;2023-07-24T11:39:58;7.15;;;3.30;;
73814;SDS011;62145;55.648;37.602;2023-07-24T11:42:27;8.73;;;3.43;;
73814;SDS011;62145;55.648;37.602;2023-07-24T11:44:53;8.70;;;3.50;;
73814;SDS011;62145;55.648;37.602;2023-07-24T11:47:19;6.65;;;3.17;;
73814;SDS011;62145;55.648;37.602;2023-07-24T11:49:57;9.02;;;3.88;;
73814;SDS011;62145;55.648;37.602;2023-07-24T11:52:24;6.18;;;3.65;;
73814;SDS011;62145;55.648;37.602;2023-07-24T11:54:56;7.33;;;4.00;;
73814;SDS011;62145;55.648;37.602;2023-07-24T11:57:27;7.45;;;3.80;;
73814;SDS011;62145;55.648;37.602;2023-07-24T11:59:53;7.10;;;3.70;;
73814;SDS011;62145;55.648;37.602;2023-07-24T12:02:19;7.63;;;4.22;;
73814;SDS011;62145;55.648;37.602;2023-07-24T12:04:45;8.87;;;4.10;;
73814;SDS011;62145;55.648;37.602;2023-07-24T12:07:11;12.98;;;5.07;;
73814;SDS011;62145;55.648;37.602;2023-07-24T12:09:37;9.73;;;5.05;;
73814;SDS011;62145;55.648;37.602;2023-07-24T12:12:03;7.73;;;4.20;;
73814;SDS011;62145;55.648;37.602;2023-07-24T12:14:32;8.45;;;4.97;;
73814;SDS011;62145;55.648;37.602;2023-07-24T12:17:01;11.30;;;5.00;;
73814;SDS011;62145;55.648;37.602;2023-07-24T12:19:27;11.38;;;5.32;;
73814;SDS011;62145;55.648;37.602;2023-07-24T12:21:53;8.20;;;5.07;;
73814;SDS011;62145;55.648;37.602;2023-07-24T12:24:19;8.93;;;4.22;;
73814;SDS011;62145;55.648;37.602;2023-07-24T12:26:45;8.77;;;4.07;;
73814;SDS011;62145;55.648;37.602;2023-07-24T12:29:11;10.10;;;4.93;;
73814;SDS011;62145;55.648;37.602;2023-07-24T12:31:37;9.95;;;5.07;;
73814;SDS011;62145;55.648;37.602;2023-07-24T12:34:03;8.25;;;4.78;;
73814;SDS011;62145;55.648;37.602;2023-07-24T12:36:28;9.27;;;4.93;;
73814;SDS011;62145;55.648;37.602;2023-07-24T12:38:54;7.78;;;4.90;;
73814;SDS011;62145;55.648;37.602;2023-07-24T12:41:20;8.33;;;4.80;;
73814;SDS011;62145;55.648;37.602;2023-07-24T12:43:46;8.25;;;5.13;;
73814;SDS011;62145;55.648;37.602;2023-07-24T12:46:12;8.57;;;5.05;;
73814;SDS011;62145;55.648;37.602;2023-07-24T12:48:38;11.30;;;5.60;;
73814;SDS011;62145;55.648;37.602;2023-07-24T12:51:03;9.93;;;6.13;;
73814;SDS011;62145;55.648;37.602;2023-07-24T12:53:29;10.03;;;5.37;;
73814;SDS011;62145;55.648;37.602;2023-07-24T12:55:55;9.50;;;5.90;;
73814;SDS011;62145;55.648;37.602;2023-07-24T12:58:21;11.40;;;5.63;;
73814;SDS011;62145;55.648;37.602;2023-07-24T13:00:47;10.57;;;5.20;;
73814;SDS011;62145;55.648;37.602;2023-07-24T13:03:13;12.27;;;5.80;;
73814;SDS011;62145;55.648;37.602;2023-07-24T13:05:39;9.27;;;5.50;;
73814;SDS011;62145;55.648;37.602;2023-07-24T13:08:05;8.75;;;5.45;;
73814;SDS011;62145;55.648;37.602;2023-07-24T13:10:31;8.83;;;5.57;;
73814;SDS011;62145;55.648;37.602;2023-07-24T13:12:57;10.75;;;5.50;;
73814;SDS011;62145;55.648;37.602;2023-07-24T13:15:23;9.18;;;4.93;;
73814;SDS011;62145;55.648;37.602;2023-07-24T13:17:49;8.70;;;5.20;;
73814;SDS011;62145;55.648;37.602;2023-07-24T13:20:14;9.15;;;5.65;;
73814;SDS011;62145;55.648;37.602;2023-07-24T13:22:40;10.55;;;5.35;;
73814;SDS011;62145;55.648;37.602;2023-07-24T13:25:08;9.93;;;5.00;;
73814;SDS011;62145;55.648;37.602;2023-07-24T13:27:34;10.02;;;5.45;;
73814;SDS011;62145;55.648;37.602;2023-07-24T13:30:00;8.68;;;5.60;;
73814;SDS011;62145;55.648;37.602;2023-07-24T13:32:44;9.43;;;4.97;;
73814;SDS011;62145;55.648;37.602;2023-07-24T13:35:10;9.60;;;4.97;;
73814;SDS011;62145;55.648;37.602;2023-07-24T13:37:36;8.98;;;5.38;;
73814;SDS011;62145;55.648;37.602;2023-07-24T13:40:02;10.45;;;5.47;;
73814;SDS011;62145;55.648;37.602;2023-07-24T13:42:29;8.00;;;5.03;;
73814;SDS011;62145;55.648;37.602;2023-07-24T13:44:55;8.15;;;5.03;;
73814;SDS011;62145;55.648;37.602;2023-07-24T13:47:21;8.95;;;4.85;;
73814;SDS011;62145;55.648;37.602;2023-07-24T13:49:47;8.77;;;4.83;;
73814;SDS011;62145;55.648;37.602;2023-07-24T13:52:12;10.32;;;5.00;;
73814;SDS011;62145;55.648;37.602;2023-07-24T13:54:38;8.35;;;4.53;;
73814;SDS011;62145;55.648;37.602;2023-07-24T13:57:04;7.60;;;4.80;;
73814;SDS011;62145;55.648;37.602;2023-07-24T13:59:32;7.97;;;5.07;;
73814;SDS011;62145;55.648;37.602;2023-07-24T14:01:58;8.57;;;4.67;;
73814;SDS011;62145;55.648;37.602;2023-07-24T14:04:24;7.63;;;4.78;;
73814;SDS011;62145;55.648;37.602;2023-07-24T14:06:50;7.43;;;4.72;;
73814;SDS011;62145;55.648;37.602;2023-07-24T14:09:16;9.67;;;5.67;;
73814;SDS011;62145;55.648;37.602;2023-07-24T14:11:42;9.93;;;5.15;;
73814;SDS011;62145;55.648;37.602;2023-07-24T14:14:07;8.35;;;5.10;;
73814;SDS011;62145;55.648;37.602;2023-07-24T14:16:34;9.10;;;4.93;;
73814;SDS011;62145;55.648;37.602;2023-07-24T14:19:00;9.20;;;5.47;;
73814;SDS011;62145;55.648;37.602;2023-07-24T14:21:25;8.98;;;5.57;;
73814;SDS011;62145;55.648;37.602;2023-07-24T14:23:51;8.90;;;5.20;;
73814;SDS011;62145;55.648;37.602;2023-07-24T14:26:17;8.55;;;4.72;;
73814;SDS011;62145;55.648;37.602;2023-07-24T14:28:43;8.10;;;4.40;;
73814;SDS011;62145;55.648;37.602;2023-07-24T14:31:09;9.52;;;4.68;;
73814;SDS011;62145;55.648;37.602;2023-07-24T14:33:35;8.45;;;4.40;;
73814;SDS011;62145;55.648;37.602;2023-07-24T14:36:00;9.33;;;4.50;;
73814;SDS011;62145;55.648;37.602;2023-07-24T14:38:27;10.40;;;4.45;;
73814;SDS011;62145;55.648;37.602;2023-07-24T14:40:53;8.13;;;4.50;;
73814;SDS011;62145;55.648;37.602;2023-07-24T14:43:18;9.73;;;4.20;;
73814;SDS011;62145;55.648;37.602;2023-07-24T14:45:44;8.27;;;4.15;;
73814;SDS011;62145;55.648;37.602;2023-07-24T14:48:10;8.40;;;4.32;;
73814;SDS011;62145;55.648;37.602;2023-07-24T14:50:38;9.47;;;4.20;;
73814;SDS011;62145;55.648;37.602;2023-07-24T14:53:04;7.45;;;4.22;;
73814;SDS011;62145;55.648;37.602;2023-07-24T14:55:30;7.85;;;4.40;;
73814;SDS011;62145;55.648;37.602;2023-07-24T14:57:58;7.63;;;4.20;;
73814;SDS011;62145;55.648;37.602;2023-07-24T15:00:24;7.40;;;4.23;;
73814;SDS011;62145;55.648;37.602;2023-07-24T15:02:50;8.70;;;4.40;;
73814;SDS011;62145;55.648;37.602;2023-07-24T15:05:16;8.07;;;4.50;;
73814;SDS011;62145;55.648;37.602;2023-07-24T15:07:41;8.25;;;4.47;;
73814;SDS011;62145;55.648;37.602;2023-07-24T15:10:07;7.78;;;4.57;;
73814;SDS011;62145;55.648;37.602;2023-07-24T15:12:33;9.47;;;5.17;;